Terminal Aerodrome Forecast
Issued by NWS

Home | Current Version | Previous Version | Graphics & Text | Print | Product List | Glossary On
Versions: 1 2 3 4 5 6 7 8 9 10 11 12 13 14 15 16 17 18 19 20 21 22 23 24 25 26 27 28 29 30 31 32 33 34 35 36 37 38 39 40 41 42 43 44 45 46 47 48 49 50
462
FTUS43 KLOT 250259 AAB
TAFGYY
TAF AMD
KGYY 250259Z 2503/2524 02010KT P6SM VCSH FEW007 SCT025 OVC080
     FM250500 02009KT 5SM -SHRA FEW006 BKN016 OVC050
     FM250900 02008KT 2SM -SHRA BR SCT002 OVC004
      TEMPO 2513/2517 1SM -DZ BR OVC003
     FM251800 06010KT 3SM -SHRA BR OVC005
     FM252100 10008KT 4SM -SHRA BR BKN012=

USA.gov is the U.S. government's official web portal to all federal, state and local government web resources and services.